Time;durP1;ratioP1;P1;durP2;ratioP2;P2;SDS_P1;SDS_P2;PMS_P1;PMS_P2;Temp;Humidity;BMP_temperature;BMP_pressure;BME280_temperature;BME280_humidity;BME280_pressure;Samples;Min_cycle;Max_cycle;Signal;HPM_P1;HPM_P2
2022/02/27 00:02:06;;;;;;;7.90;4.27;;;2.70;99.90;2.50;102472.00;;;;4931833;28;121530;-66
2022/02/27 00:04:31;;;;;;;7.17;4.20;;;2.70;99.90;2.40;102470.00;;;;4932273;28;110052;-66
2022/02/27 00:06:57;;;;;;;4.90;3.63;;;2.90;99.90;2.50;102484.00;;;;4934141;28;92967;-66
2022/02/27 00:09:23;;;;;;;5.60;3.80;;;2.70;99.90;2.40;102480.00;;;;4932633;28;106402;-66
2022/02/27 00:11:48;;;;;;;12.33;4.10;;;2.70;99.90;2.40;102483.00;;;;4931337;28;116868;-66
2022/02/27 00:14:17;;;;;;;8.87;5.00;;;2.70;99.90;2.40;102482.00;;;;4927937;28;97094;-67
2022/02/27 00:16:42;;;;;;;7.30;4.80;;;2.70;99.90;2.40;102483.00;;;;4927797;28;108600;-66
2022/02/27 00:19:08;;;;;;;6.23;4.73;;;2.70;99.90;2.40;102473.00;;;;4912913;28;121504;-65
2022/02/27 00:21:34;;;;;;;4.90;4.17;;;2.60;99.90;2.40;102493.00;;;;4912098;28;122523;-64
2022/02/27 00:24:00;;;;;;;6.83;4.33;;;2.60;99.90;2.40;102486.00;;;;4913777;28;110226;-65
2022/02/27 00:26:25;;;;;;;10.10;5.13;;;2.60;99.90;2.30;102483.00;;;;4913648;28;107791;-64
2022/02/27 00:28:51;;;;;;;8.33;4.40;;;2.60;99.90;2.30;102488.00;;;;4919676;28;122196;-65
2022/02/27 00:31:17;;;;;;;5.43;3.70;;;2.60;99.90;2.30;102483.00;;;;4915078;28;122362;-65
2022/02/27 00:33:42;;;;;;;6.47;4.90;;;3.00;99.90;2.20;102485.00;;;;4919285;28;100503;-64
2022/02/27 00:36:09;;;;;;;7.60;4.40;;;2.50;99.90;2.20;102485.00;;;;4932238;28;109064;-65
2022/02/27 00:38:35;;;;;;;4.93;3.87;;;2.50;99.90;2.20;102475.00;;;;4932651;28;103330;-65
2022/02/27 00:41:01;;;;;;;4.93;3.77;;;2.50;99.90;2.20;102481.00;;;;4932251;28;92882;-64
2022/02/27 00:43:26;;;;;;;8.23;4.87;;;2.40;99.90;2.10;102472.00;;;;4933814;28;109332;-64
2022/02/27 00:45:52;;;;;;;7.60;4.43;;;3.00;99.90;2.10;102483.00;;;;4914859;28;108462;-65
2022/02/27 00:48:18;;;;;;;11.50;5.10;;;2.40;99.90;2.10;102478.00;;;;4913909;28;122751;-64
2022/02/27 00:50:43;;;;;;;9.40;5.57;;;2.30;99.90;2.10;102484.00;;;;4929471;28;122591;-65
2022/02/27 00:53:09;;;;;;;7.17;4.87;;;2.30;99.90;2.10;102479.00;;;;4949585;28;110722;-65
2022/02/27 00:55:35;;;;;;;9.43;4.53;;;2.30;99.90;2.00;102480.00;;;;4935908;28;106706;-65
2022/02/27 00:58:02;;;;;;;7.63;5.40;;;2.30;99.90;2.00;102473.00;;;;4919200;28;110003;-66
2022/02/27 01:00:28;;;;;;;8.00;5.37;;;2.20;99.90;2.00;102480.00;;;;4916122;28;101924;-65
2022/02/27 01:02:54;;;;;;;6.53;4.43;;;2.20;99.90;1.90;102473.00;;;;4916149;28;92095;-65
2022/02/27 01:05:20;;;;;;;7.13;4.77;;;2.20;99.90;1.90;102485.00;;;;4916558;28;93046;-64
2022/02/27 01:07:45;;;;;;;8.80;5.97;;;2.20;99.90;1.90;102483.00;;;;4916151;28;108349;-64
2022/02/27 01:10:12;;;;;;;9.70;4.67;;;2.10;99.90;1.90;102477.00;;;;4922677;28;123855;-65
2022/02/27 01:12:38;;;;;;;5.87;5.27;;;2.80;99.90;1.90;102466.00;;;;4934541;28;111729;-64
2022/02/27 01:15:04;;;;;;;6.53;4.80;;;2.10;99.90;1.90;102481.00;;;;4936335;28;93092;-65
2022/02/27 01:17:30;;;;;;;8.10;5.13;;;2.20;99.90;1.90;102471.00;;;;4935413;28;94810;-65
2022/02/27 01:19:56;;;;;;;9.47;4.53;;;2.20;99.90;1.90;102475.00;;;;4920924;28;94316;-65
2022/02/27 01:22:21;;;;;;;4.37;3.97;;;1.80;99.90;1.90;102465.00;;;;4916423;28;92904;-65
2022/02/27 01:24:47;;;;;;;8.10;4.80;;;2.10;99.90;1.90;102467.00;;;;4915070;28;109035;-65
2022/02/27 01:27:13;;;;;;;9.93;5.20;;;2.10;99.90;1.90;102478.00;;;;4915592;28;121046;-65
2022/02/27 01:29:38;;;;;;;4.83;4.20;;;2.20;99.90;1.90;102473.00;;;;4914009;28;123073;-65
2022/02/27 01:32:05;;;;;;;9.43;4.37;;;2.20;99.90;1.90;102473.00;;;;4915139;28;111037;-65
2022/02/27 01:34:32;;;;;;;8.27;4.57;;;2.10;99.90;1.90;102469.00;;;;4919778;28;98011;-65
2022/02/27 01:36:58;;;;;;;8.03;4.20;;;2.20;99.90;1.90;102479.00;;;;4935189;28;92969;-65
2022/02/27 01:39:25;;;;;;;5.57;3.77;;;2.10;99.90;1.90;102471.00;;;;4935264;28;93127;-65
2022/02/27 01:41:50;;;;;;;8.90;4.70;;;2.50;99.90;1.90;102480.00;;;;4935266;28;92889;-65
2022/02/27 01:44:16;;;;;;;6.33;4.13;;;2.10;99.90;1.90;102474.00;;;;4934793;28;107784;-65
2022/02/27 01:47:10;;;;;;;6.10;4.37;;;2.10;99.90;1.80;102465.00;;;;4934032;28;121731;-65
2022/02/27 01:49:36;;;;;;;8.70;3.60;;;2.10;99.90;1.80;102464.00;;;;4933367;28;93140;-65
2022/02/27 01:52:05;;;;;;;7.10;3.63;;;2.10;99.90;1.80;102470.00;;;;4935019;28;91933;-66
2022/02/27 01:54:30;;;;;;;9.33;4.73;;;2.00;99.90;1.70;102461.00;;;;4934336;28;92986;-65
2022/02/27 01:56:58;;;;;;;6.10;5.20;;;2.10;99.90;1.70;102461.00;;;;4915185;28;101705;-65
2022/02/27 01:59:23;;;;;;;9.87;4.60;;;2.00;99.90;1.70;102453.00;;;;4915347;28;93803;-64
2022/02/27 02:01:49;;;;;;;10.37;5.50;;;2.80;99.90;1.70;102465.00;;;;4915061;28;108435;-64
2022/02/27 02:04:16;;;;;;;14.47;5.37;;;2.00;99.90;1.70;102461.00;;;;4914647;28;107876;-65
2022/02/27 02:06:41;;;;;;;6.60;4.80;;;2.00;99.90;1.70;102462.00;;;;4914892;28;93978;-64
2022/02/27 02:09:07;;;;;;;9.40;5.23;;;2.00;99.90;1.80;102464.00;;;;4914601;28;122996;-65
2022/02/27 02:11:36;;;;;;;5.00;4.37;;;2.60;99.90;1.80;102459.00;;;;4912737;28;110130;-65
2022/02/27 02:14:04;;;;;;;12.67;5.80;;;2.70;99.90;1.80;102469.00;;;;4915309;28;93079;-65
2022/02/27 02:16:44;;;;;;;7.93;4.53;;;2.10;99.90;1.70;102467.00;;;;4928743;28;92846;-65
2022/02/27 02:19:13;;;;;;;12.40;4.67;;;2.30;99.90;1.70;102461.00;;;;4933362;28;93028;-64
2022/02/27 02:21:42;;;;;;;8.90;4.03;;;1.90;99.90;1.70;102465.00;;;;4934725;28;92885;-65
2022/02/27 02:24:08;;;;;;;7.60;5.27;;;2.00;99.90;1.70;102461.00;;;;4934848;28;93728;-65
2022/02/27 02:26:37;;;;;;;11.33;4.93;;;2.00;99.90;1.70;102450.00;;;;4932923;28;123865;-64
2022/02/27 02:29:05;;;;;;;4.30;3.90;;;2.00;99.90;1.70;102453.00;;;;4933560;28;93179;-65
2022/02/27 02:31:33;;;;;;;9.77;4.53;;;2.00;99.90;1.70;102457.00;;;;4934758;28;92947;-64
2022/02/27 02:34:12;;;;;;;6.73;4.70;;;2.00;99.90;1.70;102456.00;;;;4925539;28;92738;-64
2022/02/27 02:36:40;;;;;;;7.20;4.90;;;2.00;99.90;1.70;102455.00;;;;4927649;28;93011;-64
2022/02/27 02:39:08;;;;;;;10.20;4.20;;;2.00;99.90;1.80;102453.00;;;;4934018;28;113041;-65
2022/02/27 02:41:34;;;;;;;5.27;4.70;;;2.00;99.90;1.70;102464.00;;;;4934826;28;92247;-64
2022/02/27 02:44:01;;;;;;;9.27;5.17;;;2.60;99.90;1.70;102461.00;;;;4919431;28;93328;-63
2022/02/27 02:46:27;;;;;;;4.70;4.10;;;2.00;99.90;1.70;102461.00;;;;4914694;28;96896;-64
2022/02/27 02:48:53;;;;;;;7.43;4.43;;;2.20;99.90;1.60;102458.00;;;;4913124;28;121895;-65
2022/02/27 02:51:19;;;;;;;5.93;4.63;;;1.90;99.90;1.60;102464.00;;;;4914473;28;110767;-65
2022/02/27 02:53:45;;;;;;;6.03;3.97;;;1.90;99.90;1.60;102447.00;;;;4913998;28;109380;-66
2022/02/27 02:56:11;;;;;;;7.97;4.93;;;1.90;99.90;1.60;102458.00;;;;4919119;28;122810;-65
2022/02/27 02:58:40;;;;;;;6.13;3.37;;;2.00;99.90;1.60;102450.00;;;;4933315;28;104461;-65
2022/02/27 03:01:08;;;;;;;4.50;3.83;;;1.80;99.90;1.60;102465.00;;;;4934830;28;92966;-65
2022/02/27 03:03:36;;;;;;;15.60;5.40;;;1.90;99.90;1.60;102453.00;;;;4937847;28;92759;-65
2022/02/27 03:06:01;;;;;;;5.93;4.63;;;1.90;99.90;1.60;102463.00;;;;4935078;28;100441;-66
2022/02/27 03:08:27;;;;;;;5.97;4.57;;;1.90;99.90;1.60;102469.00;;;;4933776;28;94926;-63
2022/02/27 03:10:53;;;;;;;8.80;4.97;;;2.00;99.90;1.70;102468.00;;;;4933191;28;110164;-63
2022/02/27 03:13:18;;;;;;;8.33;4.80;;;1.90;99.90;1.60;102470.00;;;;4933079;28;108761;-64
2022/02/27 03:15:44;;;;;;;6.30;4.33;;;2.20;99.90;1.60;102471.00;;;;4923035;28;122873;-65
2022/02/27 03:18:10;;;;;;;9.80;5.03;;;1.90;99.90;1.60;102457.00;;;;4913764;28;120492;-65
2022/02/27 03:20:35;;;;;;;9.33;4.20;;;1.90;99.90;1.60;102461.00;;;;4920710;28;92741;-65
2022/02/27 03:23:01;;;;;;;6.23;4.90;;;1.90;99.90;1.60;102454.00;;;;4914840;28;103116;-66
2022/02/27 03:25:28;;;;;;;10.40;5.13;;;1.90;99.90;1.60;102467.00;;;;4913730;28;122906;-65
2022/02/27 03:27:53;;;;;;;8.10;4.10;;;1.80;99.90;1.50;102463.00;;;;4912257;28;93251;-65
2022/02/27 03:30:19;;;;;;;7.50;4.40;;;1.80;99.90;1.50;102478.00;;;;4929331;28;103519;-65
2022/02/27 03:32:48;;;;;;;8.57;4.40;;;1.80;99.90;1.50;102470.00;;;;4913895;28;94796;-65
2022/02/27 03:35:15;;;;;;;4.37;3.27;;;1.80;99.90;1.50;102464.00;;;;4912364;28;93100;-65
2022/02/27 03:37:42;;;;;;;6.30;3.50;;;1.70;99.90;1.50;102470.00;;;;4913175;28;93791;-65
2022/02/27 03:40:08;;;;;;;9.73;4.33;;;1.80;99.90;1.50;102463.00;;;;4914793;28;93087;-65
2022/02/27 03:42:34;;;;;;;9.20;4.57;;;1.80;99.90;1.50;102471.00;;;;4914285;28;92934;-65
2022/02/27 03:44:59;;;;;;;6.43;4.70;;;1.80;99.90;1.60;102461.00;;;;4912538;28;111703;-65
2022/02/27 03:47:25;;;;;;;5.73;3.80;;;1.90;99.90;1.60;102474.00;;;;4913284;28;121992;-65
2022/02/27 03:49:51;;;;;;;8.10;4.90;;;2.60;99.90;1.60;102469.00;;;;4926564;28;92850;-64
2022/02/27 03:52:17;;;;;;;9.23;4.10;;;1.90;99.90;1.60;102475.00;;;;4923192;28;110039;-65
2022/02/27 03:54:43;;;;;;;7.27;3.87;;;1.90;99.90;1.60;102485.00;;;;4913593;28;93501;-67
2022/02/27 03:57:09;;;;;;;6.37;4.37;;;1.90;99.90;1.60;102475.00;;;;4912952;28;121110;-66
2022/02/27 03:59:34;;;;;;;6.40;4.30;;;1.90;99.90;1.60;102485.00;;;;4911264;28;107625;-66
2022/02/27 04:02:00;;;;;;;6.97;5.07;;;2.20;99.90;1.60;102474.00;;;;4912737;28;108884;-66
2022/02/27 04:04:26;;;;;;;5.60;4.60;;;2.60;99.90;1.60;102481.00;;;;4912915;28;110602;-66
2022/02/27 04:07:01;;;;;;;9.97;5.30;;;1.80;99.90;1.60;102483.00;;;;4914925;28;123052;-66
2022/02/27 04:09:26;;;;;;;8.10;4.97;;;2.10;99.90;1.60;102483.00;;;;4934562;28;93080;-65
2022/02/27 04:11:52;;;;;;;6.43;4.47;;;1.80;99.90;1.60;102486.00;;;;4931326;28;108780;-66
2022/02/27 04:14:18;;;;;;;10.27;5.17;;;1.90;99.90;1.50;102492.00;;;;4917819;28;93722;-67
2022/02/27 04:16:44;;;;;;;8.93;4.60;;;1.80;99.90;1.50;102486.00;;;;4916713;28;93655;-66
2022/02/27 04:19:09;;;;;;;4.90;3.77;;;1.80;99.90;1.50;102489.00;;;;4916283;28;110348;-65
2022/02/27 04:21:35;;;;;;;6.00;4.90;;;1.80;99.90;1.50;102495.00;;;;4916486;28;109011;-65
2022/02/27 04:24:02;;;;;;;8.43;4.40;;;1.70;99.90;1.50;102482.00;;;;4916735;28;93023;-66
2022/02/27 04:26:27;;;;;;;6.80;4.63;;;1.80;99.90;1.50;102486.00;;;;4915689;28;111756;-65
2022/02/27 04:28:53;;;;;;;7.87;4.97;;;1.80;99.90;1.50;102482.00;;;;4924116;28;108205;-65
2022/02/27 04:31:19;;;;;;;9.20;5.10;;;2.30;99.90;1.50;102487.00;;;;4934962;28;109520;-65
2022/02/27 04:33:45;;;;;;;6.77;4.90;;;1.70;99.90;1.50;102487.00;;;;4921884;28;123173;-66
2022/02/27 04:36:11;;;;;;;8.27;5.30;;;1.80;99.90;1.50;102490.00;;;;4916711;28;92909;-65
2022/02/27 04:38:37;;;;;;;6.73;4.73;;;1.80;99.90;1.40;102479.00;;;;4918548;28;92737;-65
2022/02/27 04:41:03;;;;;;;13.57;5.17;;;1.70;99.90;1.40;102489.00;;;;4935653;28;93349;-65
2022/02/27 04:43:30;;;;;;;8.13;4.20;;;1.70;99.90;1.30;102504.00;;;;4935730;28;111281;-65
2022/02/27 04:45:56;;;;;;;13.17;5.93;;;2.00;99.90;1.30;102492.00;;;;4934235;28;97497;-66
2022/02/27 04:48:21;;;;;;;11.43;4.63;;;1.50;99.90;1.20;102486.00;;;;4931712;28;92662;-65
2022/02/27 04:50:47;;;;;;;7.47;4.33;;;1.50;99.90;1.10;102498.00;;;;4915199;28;108684;-65
2022/02/27 04:53:13;;;;;;;8.33;5.83;;;1.40;99.90;1.00;102501.00;;;;4919610;28;121860;-64
2022/02/27 04:55:39;;;;;;;12.13;5.33;;;1.30;99.90;1.00;102502.00;;;;4935658;28;93915;-65
2022/02/27 04:58:05;;;;;;;7.93;4.40;;;1.30;99.90;0.90;102507.00;;;;4935118;28;111878;-64
2022/02/27 05:00:31;;;;;;;6.50;4.17;;;1.30;99.90;0.90;102505.00;;;;4936649;28;93929;-64
2022/02/27 05:02:57;;;;;;;8.03;5.13;;;1.20;99.90;0.90;102516.00;;;;4934738;28;123992;-64
2022/02/27 05:05:22;;;;;;;10.03;6.00;;;1.20;99.90;0.90;102514.00;;;;4934508;28;123004;-65
2022/02/27 05:07:49;;;;;;;7.43;5.33;;;1.20;99.90;0.90;102512.00;;;;4934144;28;92401;-65
2022/02/27 05:10:14;;;;;;;8.73;5.33;;;1.20;99.90;0.90;102518.00;;;;4936117;28;92967;-65
2022/02/27 05:12:42;;;;;;;9.53;5.70;;;1.20;99.90;0.80;102510.00;;;;4934276;28;123451;-64
2022/02/27 05:15:09;;;;;;;7.80;5.40;;;1.20;99.90;0.80;102525.00;;;;4933695;28;93915;-64
2022/02/27 05:17:35;;;;;;;5.87;4.17;;;1.10;99.90;0.80;102527.00;;;;4935889;28;92810;-64
2022/02/27 05:20:03;;;;;;;27.13;6.30;;;1.10;99.90;0.80;102524.00;;;;4936105;28;92772;-65
2022/02/27 05:22:29;;;;;;;12.60;5.80;;;1.10;99.90;0.80;102529.00;;;;4935224;28;95741;-66
2022/02/27 05:24:55;;;;;;;8.63;5.50;;;1.10;99.90;0.80;102528.00;;;;4934209;28;122746;-65
2022/02/27 05:27:21;;;;;;;6.47;5.60;;;1.00;99.90;0.80;102522.00;;;;4936056;28;92971;-66
2022/02/27 05:29:46;;;;;;;10.20;6.27;;;1.10;99.90;0.80;102523.00;;;;4935784;28;92679;-65
2022/02/27 05:32:13;;;;;;;9.47;6.27;;;1.10;99.90;0.80;102533.00;;;;4934032;28;122877;-65
2022/02/27 05:34:38;;;;;;;9.67;5.80;;;1.00;99.90;0.80;102528.00;;;;4928876;28;93119;-65
2022/02/27 05:37:04;;;;;;;9.97;5.87;;;1.10;99.90;0.80;102535.00;;;;4915438;28;109254;-64
2022/02/27 05:39:30;;;;;;;10.53;5.77;;;1.10;99.90;0.90;102538.00;;;;4915718;28;93796;-65
2022/02/27 05:41:56;;;;;;;5.87;5.27;;;1.20;99.90;0.90;102536.00;;;;4915163;28;121634;-64
2022/02/27 05:44:21;;;;;;;9.87;4.83;;;1.10;99.90;0.90;102548.00;;;;4914882;28;122490;-64
2022/02/27 05:46:48;;;;;;;7.80;5.53;;;1.20;99.90;0.90;102548.00;;;;4915255;28;98330;-64
2022/02/27 05:49:14;;;;;;;8.90;6.20;;;0.40;99.90;1.00;102551.00;;;;4916504;28;93012;-64
2022/02/27 05:51:40;;;;;;;7.33;5.33;;;1.20;99.90;1.00;102544.00;;;;4915510;28;94117;-64
2022/02/27 05:54:18;;;;;;;9.23;5.57;;;1.30;99.90;1.00;102535.00;;;;4916240;28;93444;-65
2022/02/27 05:56:43;;;;;;;7.20;4.97;;;1.30;99.90;1.10;102552.00;;;;4916616;28;110516;-65
2022/02/27 05:59:09;;;;;;;8.33;5.77;;;1.30;99.90;1.10;102550.00;;;;4915279;28;107728;-64
2022/02/27 06:01:35;;;;;;;6.97;5.30;;;1.30;99.90;1.10;102557.00;;;;4914491;28;122229;-64
2022/02/27 06:04:00;;;;;;;9.43;5.50;;;1.40;99.90;1.10;102562.00;;;;4913962;28;117124;-64
2022/02/27 06:06:26;;;;;;;10.13;5.73;;;1.30;99.90;1.20;102559.00;;;;4914788;28;110615;-64
2022/02/27 06:08:52;;;;;;;13.60;7.57;;;2.20;99.90;1.20;102572.00;;;;4915270;28;108928;-64
2022/02/27 06:11:17;;;;;;;12.80;7.20;;;1.50;99.90;1.30;102575.00;;;;4913920;28;122645;-64
2022/02/27 06:13:44;;;;;;;11.83;5.93;;;1.40;99.90;1.30;102567.00;;;;4914051;28;123084;-64
2022/02/27 06:16:09;;;;;;;14.80;7.40;;;1.50;99.90;1.30;102568.00;;;;4916490;28;108652;-65
2022/02/27 06:18:35;;;;;;;14.90;8.23;;;1.50;99.90;1.40;102573.00;;;;4931660;28;109599;-64
2022/02/27 06:21:01;;;;;;;11.17;7.57;;;1.60;99.90;1.40;102571.00;;;;4930187;28;121231;-64
2022/02/27 06:23:26;;;;;;;12.83;7.93;;;1.60;99.90;1.40;102571.00;;;;4930591;28;93012;-64
2022/02/27 06:25:52;;;;;;;7.17;5.43;;;1.70;99.90;1.50;102569.00;;;;4930876;28;93562;-64
2022/02/27 06:28:18;;;;;;;11.63;7.63;;;1.70;99.90;1.50;102571.00;;;;4930337;28;108450;-64
2022/02/27 06:30:44;;;;;;;16.43;8.53;;;1.80;99.90;1.60;102559.00;;;;4929325;28;121877;-65
2022/02/27 06:33:09;;;;;;;14.70;8.70;;;1.80;99.90;1.60;102578.00;;;;4916287;28;93819;-64
2022/02/27 06:35:35;;;;;;;19.17;8.10;;;1.80;99.90;1.60;102578.00;;;;4929622;28;111327;-65
2022/02/27 06:38:01;;;;;;;13.87;8.03;;;1.80;99.90;1.60;102579.00;;;;4929369;28;93115;-65
2022/02/27 06:40:26;;;;;;;13.47;7.80;;;1.90;99.90;1.60;102581.00;;;;4928094;28;123506;-64
2022/02/27 06:42:52;;;;;;;11.77;8.07;;;1.80;99.90;1.70;102586.00;;;;4930069;28;93282;-65
2022/02/27 06:45:18;;;;;;;11.20;8.10;;;2.00;99.90;1.70;102583.00;;;;4925762;28;92317;-66
2022/02/27 06:47:44;;;;;;;17.77;9.67;;;2.00;99.90;1.70;102591.00;;;;4930937;28;93022;-66
2022/02/27 06:50:11;;;;;;;13.73;8.37;;;1.90;99.90;1.70;102599.00;;;;4929327;28;112979;-65
2022/02/27 06:52:37;;;;;;;14.43;9.27;;;1.90;99.90;1.70;102593.00;;;;4929594;28;94503;-64
2022/02/27 06:55:04;;;;;;;13.03;8.60;;;1.90;99.90;1.60;102599.00;;;;4931061;28;93122;-64
2022/02/27 06:57:30;;;;;;;11.23;7.77;;;1.90;99.90;1.70;102596.00;;;;4928069;28;92711;-64
2022/02/27 06:59:55;;;;;;;17.07;8.90;;;2.30;99.90;1.70;102592.00;;;;4929686;28;121102;-64
2022/02/27 07:02:21;;;;;;;16.77;8.97;;;1.90;99.90;1.70;102594.00;;;;4930455;28;97131;-64
2022/02/27 07:04:47;;;;;;;19.17;10.33;;;1.90;99.90;1.70;102597.00;;;;4930033;28;97486;-65
2022/02/27 07:07:12;;;;;;;17.83;10.73;;;2.00;99.90;1.80;102595.00;;;;4929513;28;108501;-64
2022/02/27 07:09:38;;;;;;;16.37;9.93;;;2.00;99.90;1.80;102604.00;;;;4929868;28;100144;-64
2022/02/27 07:12:04;;;;;;;15.07;9.67;;;2.00;99.90;1.80;102599.00;;;;4930103;28;93278;-65
2022/02/27 07:14:30;;;;;;;20.77;10.53;;;2.10;99.90;1.90;102601.00;;;;4929740;28;95999;-66
2022/02/27 07:16:56;;;;;;;20.07;10.33;;;2.10;99.90;1.90;102610.00;;;;4928889;28;108751;-65
2022/02/27 07:19:24;;;;;;;19.90;10.97;;;2.10;99.90;1.80;102607.00;;;;4923368;28;107706;-66
2022/02/27 07:21:49;;;;;;;18.23;9.80;;;2.10;99.90;1.90;102609.00;;;;4931669;28;93104;-66
2022/02/27 07:24:15;;;;;;;15.47;10.73;;;2.00;99.90;1.90;102603.00;;;;4933036;28;111473;-66
2022/02/27 07:26:41;;;;;;;19.90;10.13;;;2.10;99.90;1.90;102597.00;;;;4931324;28;92712;-64
2022/02/27 07:29:08;;;;;;;24.60;12.00;;;2.10;99.90;2.00;102622.00;;;;4929735;28;92998;-66
2022/02/27 07:31:34;;;;;;;22.10;11.77;;;2.20;99.90;2.00;102625.00;;;;4929606;28;94864;-66
2022/02/27 07:34:00;;;;;;;19.23;11.47;;;2.20;99.90;2.00;102628.00;;;;4936798;28;92069;-64
2022/02/27 07:36:26;;;;;;;19.73;12.07;;;2.30;99.90;2.10;102638.00;;;;4927379;28;93177;-64
2022/02/27 07:38:52;;;;;;;18.27;10.87;;;2.30;99.90;2.10;102638.00;;;;4929393;28;94311;-63
2022/02/27 07:41:30;;;;;;;19.03;12.03;;;2.40;99.90;2.20;102632.00;;;;4928113;28;122873;-65
2022/02/27 07:43:56;;;;;;;22.63;12.07;;;2.40;99.90;2.20;102629.00;;;;4926602;28;113036;-63
2022/02/27 07:46:22;;;;;;;23.30;12.10;;;2.40;99.90;2.20;102630.00;;;;4929714;28;92849;-64
2022/02/27 07:48:47;;;;;;;17.70;10.40;;;2.40;99.90;2.30;102635.00;;;;4928487;28;120359;-63
2022/02/27 07:51:13;;;;;;;24.63;12.63;;;2.40;99.90;2.40;102633.00;;;;4927933;28;98801;-64
2022/02/27 07:53:39;;;;;;;23.17;12.87;;;2.50;99.90;2.40;102643.00;;;;4926884;28;111493;-64
2022/02/27 07:56:05;;;;;;;21.17;11.33;;;2.60;99.90;2.50;102640.00;;;;4927215;28;92969;-63
2022/02/27 07:58:30;;;;;;;23.70;11.80;;;2.60;99.90;2.50;102634.00;;;;4936384;28;112607;-64
2022/02/27 08:00:56;;;;;;;15.97;10.73;;;2.70;99.90;2.50;102638.00;;;;4927424;28;121971;-65
2022/02/27 08:03:21;;;;;;;16.73;10.30;;;2.70;99.90;2.50;102635.00;;;;4928686;28;113505;-65
2022/02/27 08:05:47;;;;;;;15.40;10.73;;;2.70;99.90;2.50;102645.00;;;;4927097;28;109069;-64
2022/02/27 08:08:13;;;;;;;17.17;10.80;;;2.80;99.90;2.60;102629.00;;;;4928086;28;122319;-64
2022/02/27 08:10:39;;;;;;;17.27;12.87;;;2.70;99.90;2.80;102638.00;;;;4920819;28;121870;-64
2022/02/27 08:13:04;;;;;;;24.30;10.33;;;2.90;99.90;3.00;102645.00;;;;4923373;28;111996;-65
2022/02/27 08:15:30;;;;;;;21.00;12.10;;;3.10;99.90;3.20;102641.00;;;;4925278;28;92939;-65
2022/02/27 08:17:56;;;;;;;17.63;11.57;;;3.30;99.90;3.30;102640.00;;;;4928939;28;109163;-66
2022/02/27 08:20:21;;;;;;;22.77;12.57;;;3.40;99.90;3.50;102640.00;;;;4926578;28;121720;-66
2022/02/27 08:22:47;;;;;;;23.40;11.67;;;3.50;99.90;3.70;102633.00;;;;4925465;28;91883;-66
2022/02/27 08:25:15;;;;;;;18.13;10.97;;;3.70;99.90;4.00;102644.00;;;;4925414;28;109419;-66
2022/02/27 08:27:41;;;;;;;22.97;10.70;;;3.90;99.90;4.30;102634.00;;;;4928059;28;94244;-68
2022/02/27 08:30:08;;;;;;;20.07;10.73;;;5.00;99.90;4.80;102635.00;;;;4927934;28;94239;-66
2022/02/27 08:32:34;;;;;;;12.47;8.20;;;4.70;99.90;5.30;102641.00;;;;4922670;28;93020;-66
2022/02/27 08:35:00;;;;;;;24.30;10.67;;;5.20;99.90;5.80;102648.00;;;;4929277;28;108735;-66
2022/02/27 08:37:26;;;;;;;18.33;9.10;;;5.70;99.90;6.20;102641.00;;;;4927759;28;93234;-67
2022/02/27 08:39:52;;;;;;;14.53;8.67;;;6.10;99.90;6.50;102641.00;;;;4918329;28;111793;-66
2022/02/27 08:42:18;;;;;;;12.80;9.47;;;6.50;99.90;6.90;102639.00;;;;4926333;28;100934;-65
2022/02/27 08:44:43;;;;;;;13.93;8.70;;;6.80;99.90;7.20;102638.00;;;;4926607;28;92763;-66
2022/02/27 08:47:09;;;;;;;14.87;8.10;;;7.10;99.90;7.40;102625.00;;;;4927529;28;92297;-65
2022/02/27 08:49:35;;;;;;;23.57;10.70;;;7.60;99.90;7.60;102638.00;;;;4927315;28;120897;-66
2022/02/27 08:52:04;;;;;;;14.57;8.07;;;7.60;99.90;7.80;102645.00;;;;4921725;28;92906;-65
2022/02/27 08:54:30;;;;;;;18.93;8.43;;;7.80;99.90;8.00;102641.00;;;;4922402;28;94530;-65
2022/02/27 08:56:55;;;;;;;14.43;8.00;;;8.00;99.90;8.20;102638.00;;;;4933174;28;101879;-65
2022/02/27 08:59:21;;;;;;;14.43;7.27;;;8.20;99.90;8.60;102635.00;;;;4928145;28;123325;-65
2022/02/27 09:01:47;;;;;;;11.50;7.83;;;8.50;99.90;9.00;102644.00;;;;4928794;28;92776;-65
2022/02/27 09:04:12;;;;;;;16.23;7.97;;;8.90;99.90;9.40;102652.00;;;;4930021;28;108935;-65
2022/02/27 09:06:38;;;;;;;10.77;6.97;;;9.20;99.90;9.80;102647.00;;;;4929061;28;122704;-65
2022/02/27 09:09:04;;;;;;;16.80;8.47;;;9.60;99.90;10.20;102647.00;;;;4930333;28;122196;-65
2022/02/27 09:11:30;;;;;;;11.60;7.30;;;10.10;99.90;10.50;102643.00;;;;4927256;28;111161;-66
2022/02/27 09:13:55;;;;;;;14.80;8.23;;;10.40;99.90;10.90;102651.00;;;;4931775;28;100047;-66
2022/02/27 09:16:21;;;;;;;16.03;8.13;;;10.70;99.90;11.10;102654.00;;;;4929351;28;122061;-65
2022/02/27 09:18:47;;;;;;;10.63;5.37;;;11.00;99.90;11.50;102648.00;;;;4930495;28;121098;-65
2022/02/27 09:21:13;;;;;;;9.13;5.47;;;11.40;99.90;11.60;102656.00;;;;4929742;28;98087;-64
2022/02/27 09:23:38;;;;;;;10.57;5.90;;;11.60;99.90;11.80;102648.00;;;;4932733;28;93005;-64
2022/02/27 09:26:04;;;;;;;9.77;5.13;;;11.70;99.90;11.90;102659.00;;;;4929525;28;123704;-64
2022/02/27 09:28:31;;;;;;;12.10;6.47;;;11.90;97.10;12.00;102646.00;;;;4929918;28;93956;-64
2022/02/27 09:30:58;;;;;;;8.80;5.37;;;12.00;94.80;12.10;102655.00;;;;4931703;28;93283;-65
2022/02/27 09:33:24;;;;;;;10.73;4.93;;;12.00;96.00;12.30;102653.00;;;;4930948;28;108584;-64
2022/02/27 09:35:50;;;;;;;9.50;5.73;;;12.20;93.40;12.50;102652.00;;;;4929925;28;92907;-64
2022/02/27 09:38:16;;;;;;;10.27;5.43;;;12.80;92.60;12.70;102658.00;;;;4928753;28;92996;-65
2022/02/27 09:40:42;;;;;;;7.10;4.90;;;12.60;90.40;12.80;102655.00;;;;4929305;28;109869;-65
2022/02/27 09:43:08;;;;;;;8.30;4.87;;;12.70;87.40;13.00;102654.00;;;;4929737;28;107338;-64
2022/02/27 09:45:34;;;;;;;9.10;5.57;;;12.90;89.60;13.40;102656.00;;;;4932225;28;121104;-65
2022/02/27 09:48:00;;;;;;;7.23;4.77;;;13.20;89.80;13.70;102654.00;;;;4929983;28;120762;-64
2022/02/27 09:50:27;;;;;;;8.30;4.67;;;13.50;90.00;14.00;102655.00;;;;4932620;28;93119;-65
2022/02/27 09:52:53;;;;;;;12.63;5.53;;;13.70;87.40;14.10;102661.00;;;;4929601;28;93076;-63
2022/02/27 09:55:19;;;;;;;7.60;5.83;;;14.00;82.20;14.40;102664.00;;;;4930909;28;95322;-65
2022/02/27 09:57:46;;;;;;;14.00;5.27;;;14.10;82.50;14.60;102673.00;;;;4929913;28;121832;-64
2022/02/27 10:00:16;;;;;;;7.90;5.03;;;14.40;80.90;14.80;102662.00;;;;4929160;28;92938;-65
2022/02/27 10:03:01;;;;;;;5.90;4.70;;;14.60;80.20;15.00;102673.00;;;;4929689;28;93037;-65
2022/02/27 10:05:26;;;;;;;6.60;5.20;;;14.90;75.40;15.20;102662.00;;;;4929203;28;99294;-66
2022/02/27 10:08:04;;;;;;;5.47;4.47;;;15.00;73.20;15.30;102655.00;;;;4928951;28;122213;-65
2022/02/27 10:10:31;;;;;;;7.47;2.93;;;15.10;70.40;15.40;102648.00;;;;4925574;28;92854;-65
2022/02/27 10:12:57;;;;;;;6.13;2.30;;;15.20;59.10;15.30;102651.00;;;;4928676;28;95360;-65
2022/02/27 10:15:23;;;;;;;4.80;3.57;;;15.20;58.80;15.40;102649.00;;;;4928756;28;120638;-64
2022/02/27 10:17:51;;;;;;;6.63;3.63;;;15.20;56.30;15.30;102655.00;;;;4926285;28;93126;-65
2022/02/27 10:20:23;;;;;;;6.35;4.60;;;15.10;55.60;15.30;102641.00;;;;4926850;28;92981;-65
2022/02/27 10:22:52;;;;;;;9.00;4.63;;;15.10;56.50;15.40;102643.00;;;;4931412;28;92870;-66
2022/02/27 10:25:29;;;;;;;4.43;3.70;;;15.20;57.00;15.50;102641.00;;;;4930979;28;92543;-67
2022/02/27 10:28:02;;;;;;;7.93;4.50;;;15.20;56.30;15.50;102646.00;;;;4927844;28;120655;-67
2022/02/27 10:30:36;;;;;;;6.47;3.73;;;15.30;53.90;15.30;102651.00;;;;4928866;28;92880;-67
2022/02/27 10:33:05;;;;;;;9.37;5.60;;;15.20;53.50;15.00;102661.00;;;;4930391;28;93752;-67
2022/02/27 10:35:47;;;;;;;10.40;5.77;;;14.90;54.00;14.80;102656.00;;;;4930406;28;93323;-66
2022/02/27 10:38:48;;;;;;;8.03;5.13;;;14.60;56.10;14.80;102662.00;;;;4929610;28;93481;-66
2022/02/27 10:41:16;;;;;;;11.00;5.43;;;14.60;57.80;14.90;102656.00;;;;4926734;28;92940;-66
2022/02/27 10:43:44;;;;;;;12.07;5.40;;;14.60;58.90;15.00;102664.00;;;;4931111;28;92784;-67
2022/02/27 10:46:13;;;;;;;5.70;4.40;;;14.70;59.00;15.10;102662.00;;;;4932898;28;101356;-66
2022/02/27 10:48:39;;;;;;;6.67;4.30;;;14.80;58.30;15.10;102661.00;;;;4934033;28;93937;-67
2022/02/27 10:51:11;;;;;;;11.50;4.47;;;14.80;58.80;15.20;102664.00;;;;4928602;28;97049;-67